VTK605 UHMP-UHMM
Flight info
| Callsign | VTK605 |
|---|---|
| Flight time | 1h 54m |
| Altitude | 36000 |
| Route | MAKUB T454 TITAL |
| Aircraft | B38M/M-SDE1FGHILORVWXY/HB1 |
Departure
| Time | 2026-04-17 11:01 |
|---|---|
| Airport | Pevek Airport (UHMP) |
Arrival
| Time | 2026-04-17 12:55 |
|---|---|
| Airport | Sokol Airport (UHMM) |
| Time | Latitude | Longitude | Altitude | Speed | Heading |
|---|---|---|---|---|---|
| 2026-04-17 10:45 | 69.78796 | 170.60122 | 33 ft | 0 kts | 305° |
| 2026-04-17 10:58 | 69.78807 | 170.60079 | 33 ft | 7 kts | 305° |
| 2026-04-17 10:58 | 69.78839 | 170.59890 | 33 ft | 14 kts | 275° |
| 2026-04-17 10:59 | 69.78812 | 170.59530 | 38 ft | 22 kts | 261° |
| 2026-04-17 10:59 | 69.78922 | 170.59265 | 32 ft | 25 kts | 346° |
| 2026-04-17 10:59 | 69.79097 | 170.59144 | 31 ft | 27 kts | 346° |
| 2026-04-17 10:59 | 69.79266 | 170.59032 | 32 ft | 21 kts | 347° |
| 2026-04-17 11:00 | 69.79381 | 170.58991 | 31 ft | 7 kts | 303° |
| 2026-04-17 11:00 | 69.79363 | 170.58962 | 32 ft | 3 kts | 161° |
| 2026-04-17 11:00 | 69.79335 | 170.58987 | 31 ft | 5 kts | 166° |
| 2026-04-17 11:00 | 69.79280 | 170.59022 | 35 ft | 17 kts | 167° |
| 2026-04-17 11:01 | 69.78876 | 170.59298 | 36 ft | 100 kts | 167° |
| 2026-04-17 11:01 | 69.77962 | 170.59917 | 75 ft | 161 kts | 166° |
| 2026-04-17 11:01 | 69.76828 | 170.60771 | 809 ft | 172 kts | 162° |
| 2026-04-17 11:01 | 69.75677 | 170.61641 | 1946 ft | 171 kts | 166° |
| 2026-04-17 11:02 | 69.74456 | 170.62471 | 2520 ft | 192 kts | 165° |
| 2026-04-17 11:02 | 69.73066 | 170.63398 | 3033 ft | 215 kts | 165° |
| 2026-04-17 11:02 | 69.71613 | 170.64349 | 4055 ft | 212 kts | 165° |
| 2026-04-17 11:02 | 69.70159 | 170.65291 | 4988 ft | 217 kts | 165° |
| 2026-04-17 11:03 | 69.68671 | 170.66248 | 5857 ft | 221 kts | 164° |
| 2026-04-17 11:03 | 69.67096 | 170.66530 | 6510 ft | 241 kts | 189° |
| 2026-04-17 11:03 | 69.65523 | 170.64339 | 7030 ft | 266 kts | 219° |
| 2026-04-17 11:03 | 69.64205 | 170.60379 | 7616 ft | 282 kts | 225° |
| 2026-04-17 11:04 | 69.62857 | 170.56240 | 8539 ft | 284 kts | 225° |
| 2026-04-17 11:04 | 69.61489 | 170.52068 | 9371 ft | 291 kts | 225° |
| 2026-04-17 11:04 | 69.60091 | 170.47804 | 10273 ft | 296 kts | 226° |
| 2026-04-17 11:04 | 69.58771 | 170.43139 | 10847 ft | 309 kts | 230° |
| 2026-04-17 11:05 | 69.57387 | 170.38158 | 11226 ft | 329 kts | 230° |
| 2026-04-17 11:05 | 69.55930 | 170.32968 | 11774 ft | 340 kts | 229° |
| 2026-04-17 11:05 | 69.54436 | 170.27688 | 12604 ft | 342 kts | 229° |
| 2026-04-17 11:05 | 69.52923 | 170.22365 | 13360 ft | 348 kts | 229° |
| 2026-04-17 11:06 | 69.51417 | 170.17022 | 14145 ft | 352 kts | 230° |
| 2026-04-17 11:06 | 69.49871 | 170.11553 | 14843 ft | 356 kts | 230° |
| 2026-04-17 11:06 | 69.48301 | 170.06020 | 15526 ft | 361 kts | 230° |
| 2026-04-17 11:06 | 69.46709 | 170.00422 | 16216 ft | 365 kts | 230° |
| 2026-04-17 11:07 | 69.45096 | 169.94767 | 16901 ft | 370 kts | 230° |
| 2026-04-17 11:07 | 69.43464 | 169.89059 | 17571 ft | 374 kts | 229° |
| 2026-04-17 11:07 | 69.41812 | 169.83299 | 18226 ft | 379 kts | 229° |
| 2026-04-17 11:07 | 69.40134 | 169.77463 | 18850 ft | 383 kts | 229° |
| 2026-04-17 11:08 | 69.38435 | 169.71570 | 19388 ft | 387 kts | 229° |
| 2026-04-17 11:08 | 69.36723 | 169.65647 | 19952 ft | 391 kts | 229° |
| 2026-04-17 11:08 | 69.34985 | 169.59653 | 20491 ft | 395 kts | 229° |
| 2026-04-17 11:08 | 69.33231 | 169.53621 | 21028 ft | 398 kts | 229° |
| 2026-04-17 11:09 | 69.31457 | 169.47534 | 21551 ft | 402 kts | 229° |
| 2026-04-17 11:09 | 69.29663 | 169.41397 | 22083 ft | 406 kts | 229° |
| 2026-04-17 11:09 | 69.27876 | 169.35303 | 22598 ft | 409 kts | 229° |
| 2026-04-17 11:10 | 69.24201 | 169.22824 | 23622 ft | 417 kts | 229° |
| 2026-04-17 11:10 | 69.22338 | 169.16522 | 24090 ft | 421 kts | 229° |
| 2026-04-17 11:10 | 69.20425 | 169.10247 | 24501 ft | 423 kts | 223° |
| 2026-04-17 11:10 | 69.18196 | 169.04872 | 24947 ft | 423 kts | 218° |
| 2026-04-17 11:11 | 69.15920 | 168.99532 | 25332 ft | 428 kts | 217° |
| 2026-04-17 11:11 | 69.13625 | 168.94140 | 25736 ft | 431 kts | 217° |
| 2026-04-17 11:11 | 69.11317 | 168.88735 | 26144 ft | 433 kts | 217° |
| 2026-04-17 11:11 | 69.08992 | 168.83306 | 26530 ft | 436 kts | 217° |
| 2026-04-17 11:12 | 69.06649 | 168.77848 | 26948 ft | 439 kts | 217° |
| 2026-04-17 11:12 | 69.04297 | 168.72387 | 27349 ft | 441 kts | 217° |
| 2026-04-17 11:12 | 69.01929 | 168.66906 | 27733 ft | 443 kts | 217° |
| 2026-04-17 11:12 | 68.99574 | 168.61467 | 28109 ft | 446 kts | 217° |
| 2026-04-17 11:13 | 68.97175 | 168.55946 | 28485 ft | 448 kts | 217° |
| 2026-04-17 11:13 | 68.94766 | 168.50418 | 28849 ft | 450 kts | 217° |
| 2026-04-17 11:13 | 68.92331 | 168.44845 | 29200 ft | 453 kts | 217° |
| 2026-04-17 11:13 | 68.89893 | 168.39281 | 29568 ft | 456 kts | 217° |
| 2026-04-17 11:14 | 68.87436 | 168.33693 | 29925 ft | 457 kts | 217° |
| 2026-04-17 11:14 | 68.84970 | 168.28098 | 30294 ft | 459 kts | 216° |
| 2026-04-17 11:14 | 68.82489 | 168.22489 | 30595 ft | 462 kts | 217° |
| 2026-04-17 11:14 | 68.79991 | 168.16855 | 30878 ft | 464 kts | 217° |
| 2026-04-17 11:15 | 68.77485 | 168.11222 | 31180 ft | 465 kts | 216° |
| 2026-04-17 11:15 | 68.74966 | 168.05578 | 31381 ft | 469 kts | 216° |
| 2026-04-17 11:15 | 68.72423 | 167.99896 | 31639 ft | 471 kts | 216° |
| 2026-04-17 11:15 | 68.69873 | 167.94214 | 31911 ft | 473 kts | 216° |
| 2026-04-17 11:16 | 68.67307 | 167.88515 | 32174 ft | 475 kts | 216° |
| 2026-04-17 11:16 | 68.64726 | 167.82802 | 32431 ft | 477 kts | 216° |
| 2026-04-17 11:16 | 68.62140 | 167.77093 | 32679 ft | 478 kts | 216° |
| 2026-04-17 11:16 | 68.59540 | 167.71370 | 32932 ft | 480 kts | 216° |
| 2026-04-17 11:17 | 68.56923 | 167.65629 | 33186 ft | 482 kts | 216° |
| 2026-04-17 11:17 | 68.54307 | 167.59908 | 33427 ft | 484 kts | 216° |
| 2026-04-17 11:17 | 68.51677 | 167.54171 | 33762 ft | 483 kts | 216° |
| 2026-04-17 11:17 | 68.49045 | 167.48450 | 34101 ft | 482 kts | 216° |
| 2026-04-17 11:18 | 68.46422 | 167.42766 | 34441 ft | 482 kts | 216° |
| 2026-04-17 11:18 | 68.43833 | 167.37173 | 34715 ft | 481 kts | 216° |
| 2026-04-17 11:18 | 68.41217 | 167.31538 | 35000 ft | 480 kts | 216° |
| 2026-04-17 11:18 | 68.38604 | 167.25925 | 35308 ft | 478 kts | 216° |
| 2026-04-17 11:19 | 68.35999 | 167.20349 | 35580 ft | 477 kts | 216° |
| 2026-04-17 11:19 | 68.33386 | 167.14770 | 35793 ft | 478 kts | 216° |
| 2026-04-17 11:19 | 68.30775 | 167.09215 | 36038 ft | 478 kts | 216° |
| 2026-04-17 11:19 | 68.28162 | 167.03669 | 36293 ft | 477 kts | 216° |
| 2026-04-17 11:20 | 68.25547 | 166.98136 | 36425 ft | 478 kts | 216° |
| 2026-04-17 11:20 | 68.22926 | 166.92610 | 36396 ft | 477 kts | 216° |
| 2026-04-17 11:20 | 68.17710 | 166.81657 | 36390 ft | 475 kts | 216° |
| 2026-04-17 11:21 | 68.12520 | 166.70824 | 36379 ft | 475 kts | 216° |
| 2026-04-17 11:21 | 68.07290 | 166.59970 | 36383 ft | 475 kts | 216° |
| 2026-04-17 11:22 | 68.02054 | 166.49168 | 36357 ft | 475 kts | 216° |
| 2026-04-17 11:22 | 67.96820 | 166.38429 | 36356 ft | 475 kts | 215° |
| 2026-04-17 11:23 | 67.91573 | 166.27718 | 36345 ft | 475 kts | 215° |
| 2026-04-17 11:23 | 67.86320 | 166.17052 | 36349 ft | 475 kts | 215° |
| 2026-04-17 11:24 | 67.81352 | 166.05496 | 36365 ft | 477 kts | 221° |
| 2026-04-17 11:24 | 67.76492 | 165.93564 | 36338 ft | 476 kts | 221° |
| 2026-04-17 11:25 | 67.71633 | 165.81674 | 36347 ft | 476 kts | 221° |
| 2026-04-17 11:25 | 67.66780 | 165.69866 | 36338 ft | 474 kts | 220° |
| 2026-04-17 11:26 | 67.61925 | 165.58122 | 36339 ft | 474 kts | 220° |
| 2026-04-17 11:26 | 67.57092 | 165.46501 | 36343 ft | 474 kts | 220° |
| 2026-04-17 11:27 | 67.52190 | 165.34780 | 36338 ft | 474 kts | 220° |
| 2026-04-17 11:27 | 67.47343 | 165.23259 | 36336 ft | 474 kts | 220° |
| 2026-04-17 11:28 | 67.42452 | 165.11700 | 36333 ft | 474 kts | 220° |
| 2026-04-17 11:28 | 67.37566 | 165.00220 | 36327 ft | 473 kts | 220° |
| 2026-04-17 11:29 | 67.32672 | 164.88787 | 36321 ft | 473 kts | 220° |
| 2026-04-17 11:29 | 67.27770 | 164.77401 | 36312 ft | 473 kts | 220° |
| 2026-04-17 11:30 | 67.22854 | 164.66048 | 36312 ft | 473 kts | 220° |
| 2026-04-17 11:30 | 67.17925 | 164.54730 | 36304 ft | 473 kts | 220° |
| 2026-04-17 11:31 | 67.13000 | 164.43483 | 36301 ft | 473 kts | 219° |
| 2026-04-17 11:31 | 67.08066 | 164.32281 | 36311 ft | 474 kts | 220° |
| 2026-04-17 11:32 | 67.03112 | 164.21099 | 36295 ft | 474 kts | 220° |
| 2026-04-17 11:32 | 66.98157 | 164.09975 | 36284 ft | 474 kts | 219° |
| 2026-04-17 11:33 | 66.93188 | 163.98886 | 36278 ft | 474 kts | 219° |
| 2026-04-17 11:33 | 66.88241 | 163.87903 | 36282 ft | 474 kts | 219° |
| 2026-04-17 11:34 | 66.83259 | 163.76906 | 36275 ft | 474 kts | 219° |
| 2026-04-17 11:34 | 66.78263 | 163.65942 | 36274 ft | 475 kts | 219° |
| 2026-04-17 11:35 | 66.73248 | 163.54994 | 36272 ft | 475 kts | 219° |
| 2026-04-17 11:35 | 66.68231 | 163.44105 | 36267 ft | 475 kts | 219° |
| 2026-04-17 11:36 | 66.63216 | 163.33280 | 36276 ft | 475 kts | 219° |
| 2026-04-17 11:36 | 66.59035 | 163.24300 | 36269 ft | 475 kts | 219° |
| 2026-04-17 11:37 | 66.54001 | 163.13542 | 36271 ft | 475 kts | 218° |
| 2026-04-17 11:37 | 66.48965 | 163.02841 | 36261 ft | 475 kts | 218° |
| 2026-04-17 11:38 | 66.43915 | 162.92168 | 36266 ft | 475 kts | 218° |
| 2026-04-17 11:38 | 66.38856 | 162.81535 | 36264 ft | 475 kts | 218° |
| 2026-04-17 11:39 | 66.33804 | 162.70974 | 36271 ft | 474 kts | 218° |
| 2026-04-17 11:39 | 66.28730 | 162.60426 | 36272 ft | 475 kts | 218° |
| 2026-04-17 11:40 | 66.23654 | 162.49928 | 36276 ft | 475 kts | 218° |
| 2026-04-17 11:40 | 66.18601 | 162.39536 | 36266 ft | 474 kts | 218° |
| 2026-04-17 11:41 | 66.13529 | 162.29161 | 36270 ft | 474 kts | 218° |
| 2026-04-17 11:41 | 66.08440 | 162.18807 | 36281 ft | 473 kts | 218° |
| 2026-04-17 11:42 | 66.03351 | 162.08506 | 36283 ft | 474 kts | 217° |
| 2026-04-17 11:42 | 65.98250 | 161.98239 | 36276 ft | 473 kts | 217° |
| 2026-04-17 11:43 | 65.93152 | 161.88031 | 36271 ft | 473 kts | 217° |
| 2026-04-17 11:43 | 65.88035 | 161.77839 | 36278 ft | 474 kts | 217° |
| 2026-04-17 11:44 | 65.82891 | 161.67649 | 36274 ft | 472 kts | 217° |
| 2026-04-17 11:44 | 65.77786 | 161.57586 | 36285 ft | 472 kts | 217° |
| 2026-04-17 11:45 | 65.72662 | 161.47543 | 36271 ft | 472 kts | 217° |
| 2026-04-17 11:45 | 65.67573 | 161.37618 | 36263 ft | 472 kts | 217° |
| 2026-04-17 11:46 | 65.62446 | 161.27673 | 36259 ft | 472 kts | 217° |
| 2026-04-17 11:46 | 65.57311 | 161.17760 | 36260 ft | 472 kts | 217° |
| 2026-04-17 11:47 | 65.52165 | 161.07882 | 36254 ft | 471 kts | 217° |
| 2026-04-17 11:47 | 65.47036 | 160.98079 | 36257 ft | 471 kts | 217° |
| 2026-04-17 11:48 | 65.41894 | 160.88295 | 36245 ft | 470 kts | 217° |
| 2026-04-17 11:48 | 65.36762 | 160.78580 | 36247 ft | 470 kts | 217° |
| 2026-04-17 11:49 | 65.31611 | 160.68877 | 36253 ft | 471 kts | 217° |
| 2026-04-17 11:49 | 65.26449 | 160.59201 | 36244 ft | 471 kts | 217° |
| 2026-04-17 11:50 | 65.21355 | 160.49396 | 36241 ft | 470 kts | 218° |
| 2026-04-17 11:50 | 65.16318 | 160.39556 | 36238 ft | 470 kts | 218° |
| 2026-04-17 11:51 | 65.11256 | 160.29720 | 36239 ft | 470 kts | 218° |
| 2026-04-17 11:51 | 65.06184 | 160.19915 | 36246 ft | 470 kts | 218° |
| 2026-04-17 11:52 | 65.01113 | 160.10161 | 36246 ft | 470 kts | 218° |
| 2026-04-17 11:52 | 64.96025 | 160.00425 | 36246 ft | 470 kts | 218° |
| 2026-04-17 11:53 | 64.90941 | 159.90743 | 36250 ft | 470 kts | 218° |
| 2026-04-17 11:53 | 64.85845 | 159.81090 | 36256 ft | 470 kts | 218° |
| 2026-04-17 11:54 | 64.80740 | 159.71466 | 36259 ft | 470 kts | 218° |
| 2026-04-17 11:54 | 64.75635 | 159.61891 | 36255 ft | 470 kts | 217° |
| 2026-04-17 11:55 | 64.70510 | 159.52325 | 36264 ft | 470 kts | 217° |
| 2026-04-17 11:55 | 64.65393 | 159.42822 | 36259 ft | 470 kts | 217° |
| 2026-04-17 11:56 | 64.60274 | 159.33363 | 36257 ft | 469 kts | 217° |
| 2026-04-17 11:56 | 64.55155 | 159.23950 | 36261 ft | 469 kts | 217° |
| 2026-04-17 11:57 | 64.50067 | 159.14641 | 36262 ft | 468 kts | 217° |
| 2026-04-17 11:57 | 64.44943 | 159.05312 | 36256 ft | 468 kts | 217° |
| 2026-04-17 11:58 | 64.39802 | 158.95995 | 36256 ft | 469 kts | 217° |
| 2026-04-17 11:58 | 64.34666 | 158.86734 | 36259 ft | 469 kts | 217° |
| 2026-04-17 11:59 | 64.29515 | 158.77492 | 36263 ft | 468 kts | 217° |
| 2026-04-17 11:59 | 64.24363 | 158.68292 | 36261 ft | 468 kts | 217° |
| 2026-04-17 12:00 | 64.19202 | 158.59120 | 36265 ft | 468 kts | 217° |
| 2026-04-17 12:00 | 64.14037 | 158.49987 | 36268 ft | 469 kts | 217° |
| 2026-04-17 12:01 | 64.08909 | 158.40962 | 36267 ft | 468 kts | 217° |
| 2026-04-17 12:01 | 64.03736 | 158.31900 | 36267 ft | 468 kts | 216° |
| 2026-04-17 12:02 | 63.98558 | 158.22874 | 36269 ft | 467 kts | 216° |
| 2026-04-17 12:02 | 63.93388 | 158.13905 | 36273 ft | 467 kts | 216° |
| 2026-04-17 12:03 | 63.88208 | 158.04962 | 36271 ft | 468 kts | 216° |
| 2026-04-17 12:03 | 63.83014 | 157.96036 | 36264 ft | 467 kts | 216° |
| 2026-04-17 12:04 | 63.77831 | 157.87170 | 36266 ft | 468 kts | 216° |
| 2026-04-17 12:04 | 63.72616 | 157.78294 | 36263 ft | 468 kts | 216° |
| 2026-04-17 12:05 | 63.67449 | 157.69539 | 36262 ft | 467 kts | 216° |
| 2026-04-17 12:05 | 63.62253 | 157.60777 | 36262 ft | 467 kts | 216° |
| 2026-04-17 12:06 | 63.57043 | 157.52024 | 36263 ft | 467 kts | 216° |
| 2026-04-17 12:06 | 63.51838 | 157.43316 | 36263 ft | 467 kts | 216° |
| 2026-04-17 12:07 | 63.46633 | 157.34650 | 36261 ft | 467 kts | 216° |
| 2026-04-17 12:07 | 63.41414 | 157.26030 | 36260 ft | 466 kts | 216° |
| 2026-04-17 12:08 | 63.36191 | 157.17417 | 36261 ft | 467 kts | 216° |
| 2026-04-17 12:08 | 63.30995 | 157.08883 | 36248 ft | 466 kts | 216° |
| 2026-04-17 12:09 | 63.25762 | 157.00332 | 36250 ft | 466 kts | 215° |
| 2026-04-17 12:09 | 63.20530 | 156.91819 | 36249 ft | 466 kts | 215° |
| 2026-04-17 12:10 | 63.15287 | 156.83327 | 36250 ft | 467 kts | 215° |
| 2026-04-17 12:10 | 63.10044 | 156.74875 | 36238 ft | 466 kts | 215° |
| 2026-04-17 12:11 | 63.04795 | 156.66450 | 36245 ft | 467 kts | 215° |
| 2026-04-17 12:12 | 62.96899 | 156.53851 | 36227 ft | 467 kts | 215° |
| 2026-04-17 12:12 | 62.91642 | 156.45510 | 36229 ft | 467 kts | 215° |
| 2026-04-17 12:13 | 62.86364 | 156.37172 | 36217 ft | 467 kts | 215° |
| 2026-04-17 12:13 | 62.81089 | 156.28878 | 36215 ft | 467 kts | 215° |
| 2026-04-17 12:14 | 62.75845 | 156.20669 | 36216 ft | 466 kts | 214° |
| 2026-04-17 12:14 | 62.70573 | 156.12454 | 36211 ft | 466 kts | 214° |
| 2026-04-17 12:15 | 62.65299 | 156.04271 | 36211 ft | 466 kts | 214° |
| 2026-04-17 12:15 | 62.60010 | 155.96102 | 36220 ft | 466 kts | 214° |
| 2026-04-17 12:16 | 62.54717 | 155.87962 | 36213 ft | 467 kts | 214° |
| 2026-04-17 12:16 | 62.50316 | 155.81217 | 36207 ft | 467 kts | 214° |
| 2026-04-17 12:17 | 62.45127 | 155.72772 | 36187 ft | 466 kts | 225° |
| 2026-04-17 12:17 | 62.40609 | 155.62745 | 36183 ft | 466 kts | 225° |
| 2026-04-17 12:18 | 62.36050 | 155.52782 | 36217 ft | 467 kts | 225° |
| 2026-04-17 12:18 | 62.31514 | 155.42893 | 36210 ft | 466 kts | 225° |
| 2026-04-17 12:19 | 62.26948 | 155.32981 | 36209 ft | 467 kts | 225° |
| 2026-04-17 12:19 | 62.22346 | 155.23038 | 36213 ft | 466 kts | 225° |
| 2026-04-17 12:20 | 62.17793 | 155.13246 | 36211 ft | 466 kts | 225° |
| 2026-04-17 12:20 | 62.13216 | 155.03445 | 36211 ft | 466 kts | 224° |
| 2026-04-17 12:21 | 62.08629 | 154.93669 | 36209 ft | 466 kts | 224° |
| 2026-04-17 12:21 | 62.04738 | 154.85411 | 36212 ft | 467 kts | 224° |
| 2026-04-17 12:22 | 62.00221 | 154.75863 | 36194 ft | 467 kts | 224° |
| 2026-04-17 12:22 | 61.95600 | 154.66139 | 36203 ft | 467 kts | 224° |
| 2026-04-17 12:23 | 61.90980 | 154.56460 | 36205 ft | 467 kts | 224° |
| 2026-04-17 12:23 | 61.86341 | 154.46785 | 36198 ft | 467 kts | 224° |
| 2026-04-17 12:24 | 61.81707 | 154.37165 | 36194 ft | 467 kts | 224° |
| 2026-04-17 12:24 | 61.77087 | 154.27615 | 36193 ft | 467 kts | 224° |
| 2026-04-17 12:25 | 61.72437 | 154.18047 | 36188 ft | 466 kts | 224° |
| 2026-04-17 12:25 | 61.67789 | 154.08525 | 36191 ft | 466 kts | 223° |
| 2026-04-17 12:26 | 61.63139 | 153.99040 | 36190 ft | 465 kts | 223° |
| 2026-04-17 12:26 | 61.60850 | 153.94387 | 36160 ft | 450 kts | 223° |
| 2026-04-17 12:26 | 61.58634 | 153.89893 | 36161 ft | 434 kts | 223° |
| 2026-04-17 12:26 | 61.56503 | 153.85577 | 36165 ft | 418 kts | 223° |
| 2026-04-17 12:27 | 61.54425 | 153.81381 | 36168 ft | 415 kts | 223° |
| 2026-04-17 12:27 | 61.50227 | 153.72924 | 36231 ft | 422 kts | 223° |
| 2026-04-17 12:28 | 61.45948 | 153.64340 | 36207 ft | 431 kts | 223° |
| 2026-04-17 12:28 | 61.41569 | 153.55589 | 36208 ft | 439 kts | 223° |
| 2026-04-17 12:29 | 61.37110 | 153.46715 | 36210 ft | 447 kts | 223° |
| 2026-04-17 12:29 | 61.32568 | 153.37713 | 36196 ft | 451 kts | 223° |
| 2026-04-17 12:30 | 61.28020 | 153.28737 | 36152 ft | 451 kts | 223° |
| 2026-04-17 12:30 | 61.25746 | 153.24261 | 35783 ft | 449 kts | 223° |
| 2026-04-17 12:30 | 61.23479 | 153.19811 | 35200 ft | 449 kts | 223° |
| 2026-04-17 12:30 | 61.21221 | 153.15389 | 34617 ft | 450 kts | 223° |
| 2026-04-17 12:31 | 61.18948 | 153.10945 | 34088 ft | 449 kts | 223° |
| 2026-04-17 12:31 | 61.16674 | 153.06509 | 33499 ft | 448 kts | 223° |
| 2026-04-17 12:31 | 61.14414 | 153.02110 | 32980 ft | 445 kts | 223° |
| 2026-04-17 12:31 | 61.12167 | 152.97744 | 32502 ft | 441 kts | 223° |
| 2026-04-17 12:32 | 61.09942 | 152.93430 | 32036 ft | 438 kts | 223° |
| 2026-04-17 12:32 | 61.07723 | 152.89136 | 31543 ft | 436 kts | 223° |
| 2026-04-17 12:32 | 61.05515 | 152.84872 | 31071 ft | 434 kts | 223° |
| 2026-04-17 12:32 | 61.03314 | 152.80629 | 30597 ft | 432 kts | 223° |
| 2026-04-17 12:33 | 61.01123 | 152.76416 | 30103 ft | 430 kts | 223° |
| 2026-04-17 12:33 | 60.98942 | 152.72229 | 29550 ft | 427 kts | 223° |
| 2026-04-17 12:33 | 60.96779 | 152.68083 | 29115 ft | 422 kts | 223° |
| 2026-04-17 12:33 | 60.94637 | 152.63983 | 28694 ft | 418 kts | 223° |
| 2026-04-17 12:34 | 60.92514 | 152.59928 | 28238 ft | 415 kts | 222° |
| 2026-04-17 12:34 | 60.90402 | 152.55899 | 27810 ft | 412 kts | 222° |
| 2026-04-17 12:34 | 60.88307 | 152.51913 | 27393 ft | 409 kts | 222° |
| 2026-04-17 12:34 | 60.86229 | 152.47963 | 26970 ft | 406 kts | 222° |
| 2026-04-17 12:35 | 60.84187 | 152.44090 | 26566 ft | 403 kts | 222° |
| 2026-04-17 12:35 | 60.82133 | 152.40199 | 26143 ft | 401 kts | 222° |
| 2026-04-17 12:35 | 60.80093 | 152.36304 | 25648 ft | 401 kts | 222° |
| 2026-04-17 12:35 | 60.78033 | 152.32364 | 25259 ft | 399 kts | 222° |
| 2026-04-17 12:37 | 60.64084 | 152.05856 | 22405 ft | 384 kts | 222° |
| 2026-04-17 12:37 | 60.62131 | 152.02171 | 22017 ft | 381 kts | 222° |
| 2026-04-17 12:38 | 60.60189 | 151.98514 | 21626 ft | 378 kts | 222° |
| 2026-04-17 12:38 | 60.58261 | 151.94891 | 21239 ft | 376 kts | 222° |
| 2026-04-17 12:38 | 60.56340 | 151.91299 | 20860 ft | 373 kts | 222° |
| 2026-04-17 12:38 | 60.54438 | 151.87730 | 20487 ft | 371 kts | 222° |
| 2026-04-17 12:39 | 60.52554 | 151.84198 | 20103 ft | 368 kts | 222° |
| 2026-04-17 12:39 | 60.50678 | 151.80687 | 19728 ft | 366 kts | 222° |
| 2026-04-17 12:39 | 60.48809 | 151.77203 | 19378 ft | 363 kts | 222° |
| 2026-04-17 12:39 | 60.46954 | 151.73744 | 19007 ft | 361 kts | 222° |
| 2026-04-17 12:40 | 60.45104 | 151.70308 | 18635 ft | 360 kts | 222° |
| 2026-04-17 12:40 | 60.43263 | 151.66899 | 18231 ft | 358 kts | 222° |
| 2026-04-17 12:40 | 60.41431 | 151.63514 | 17838 ft | 355 kts | 222° |
| 2026-04-17 12:40 | 60.39621 | 151.60161 | 17474 ft | 352 kts | 223° |
| 2026-04-17 12:41 | 60.38000 | 151.56508 | 17049 ft | 348 kts | 240° |
| 2026-04-17 12:41 | 60.36843 | 151.52264 | 16767 ft | 342 kts | 242° |
| 2026-04-17 12:41 | 60.35679 | 151.48095 | 16440 ft | 339 kts | 242° |
| 2026-04-17 12:41 | 60.34529 | 151.43960 | 16080 ft | 337 kts | 242° |
| 2026-04-17 12:42 | 60.33386 | 151.39843 | 15728 ft | 334 kts | 242° |
| 2026-04-17 12:42 | 60.32254 | 151.35765 | 15386 ft | 332 kts | 242° |
| 2026-04-17 12:42 | 60.31131 | 151.31720 | 15042 ft | 329 kts | 242° |
| 2026-04-17 12:42 | 60.30027 | 151.27754 | 14710 ft | 327 kts | 242° |
| 2026-04-17 12:43 | 60.28917 | 151.23771 | 14383 ft | 325 kts | 242° |
| 2026-04-17 12:43 | 60.27813 | 151.19818 | 14047 ft | 322 kts | 242° |
| 2026-04-17 12:43 | 60.26715 | 151.15894 | 13672 ft | 320 kts | 242° |
| 2026-04-17 12:43 | 60.25624 | 151.12000 | 13300 ft | 318 kts | 242° |
| 2026-04-17 12:44 | 60.24541 | 151.08142 | 12976 ft | 315 kts | 242° |
| 2026-04-17 12:44 | 60.23469 | 151.04328 | 12658 ft | 311 kts | 242° |
| 2026-04-17 12:44 | 60.22405 | 151.00551 | 12332 ft | 309 kts | 242° |
| 2026-04-17 12:44 | 60.21348 | 150.96806 | 12004 ft | 306 kts | 242° |
| 2026-04-17 12:45 | 60.20299 | 150.93093 | 11681 ft | 303 kts | 242° |
| 2026-04-17 12:45 | 60.19262 | 150.89427 | 11363 ft | 301 kts | 242° |
| 2026-04-17 12:45 | 60.18225 | 150.85769 | 11047 ft | 299 kts | 242° |
| 2026-04-17 12:45 | 60.17199 | 150.82155 | 10716 ft | 296 kts | 241° |
| 2026-04-17 12:46 | 60.16180 | 150.78568 | 10412 ft | 294 kts | 241° |
| 2026-04-17 12:46 | 60.15170 | 150.75022 | 10163 ft | 289 kts | 242° |
| 2026-04-17 12:46 | 60.14191 | 150.71593 | 9884 ft | 285 kts | 242° |
| 2026-04-17 12:46 | 60.13207 | 150.68151 | 9554 ft | 283 kts | 242° |
| 2026-04-17 12:47 | 60.12228 | 150.64728 | 9219 ft | 283 kts | 242° |
| 2026-04-17 12:47 | 60.11249 | 150.61311 | 8845 ft | 283 kts | 242° |
| 2026-04-17 12:47 | 60.10269 | 150.57895 | 8501 ft | 281 kts | 242° |
| 2026-04-17 12:47 | 60.09297 | 150.54513 | 8187 ft | 279 kts | 241° |
| 2026-04-17 12:48 | 60.08332 | 150.51161 | 7886 ft | 277 kts | 241° |
| 2026-04-17 12:48 | 60.07373 | 150.47834 | 7586 ft | 274 kts | 241° |
| 2026-04-17 12:48 | 60.06422 | 150.44538 | 7285 ft | 272 kts | 241° |
| 2026-04-17 12:48 | 60.05484 | 150.41292 | 7087 ft | 266 kts | 241° |
| 2026-04-17 12:49 | 60.04575 | 150.38151 | 6976 ft | 256 kts | 241° |
| 2026-04-17 12:49 | 60.03698 | 150.35127 | 6864 ft | 247 kts | 241° |
| 2026-04-17 12:49 | 60.02793 | 150.32259 | 6662 ft | 242 kts | 228° |
| 2026-04-17 12:49 | 60.01399 | 150.30400 | 6199 ft | 246 kts | 196° |
| 2026-04-17 12:50 | 59.99704 | 150.29924 | 5748 ft | 248 kts | 182° |
| 2026-04-17 12:50 | 59.97961 | 150.29709 | 5297 ft | 253 kts | 181° |
| 2026-04-17 12:50 | 59.96182 | 150.29508 | 4850 ft | 258 kts | 181° |
| 2026-04-17 12:50 | 59.94395 | 150.29599 | 4360 ft | 254 kts | 162° |
| 2026-04-17 12:51 | 59.92952 | 150.31346 | 3959 ft | 239 kts | 126° |
| 2026-04-17 12:51 | 59.92267 | 150.34204 | 3677 ft | 223 kts | 98° |
| 2026-04-17 12:51 | 59.92108 | 150.37159 | 3513 ft | 207 kts | 92° |
| 2026-04-17 12:51 | 59.91995 | 150.39940 | 3312 ft | 194 kts | 92° |
| 2026-04-17 12:52 | 59.91903 | 150.42547 | 3050 ft | 184 kts | 91° |
| 2026-04-17 12:52 | 59.91823 | 150.45025 | 2801 ft | 173 kts | 91° |
| 2026-04-17 12:52 | 59.91754 | 150.47334 | 2706 ft | 165 kts | 91° |
| 2026-04-17 12:52 | 59.91689 | 150.49632 | 2649 ft | 167 kts | 90° |
| 2026-04-17 12:53 | 59.91631 | 150.51855 | 2396 ft | 152 kts | 91° |
| 2026-04-17 12:53 | 59.91576 | 150.53909 | 2197 ft | 147 kts | 90° |
| 2026-04-17 12:53 | 59.91524 | 150.55940 | 1927 ft | 147 kts | 92° |
| 2026-04-17 12:53 | 59.91468 | 150.58005 | 1685 ft | 148 kts | 93° |
| 2026-04-17 12:54 | 59.91414 | 150.60024 | 1465 ft | 148 kts | 94° |
| 2026-04-17 12:54 | 59.91360 | 150.62072 | 1270 ft | 148 kts | 93° |
| 2026-04-17 12:54 | 59.91306 | 150.64108 | 1078 ft | 146 kts | 93° |
| 2026-04-17 12:54 | 59.91252 | 150.66129 | 882 ft | 146 kts | 92° |
| 2026-04-17 12:55 | 59.91201 | 150.68137 | 692 ft | 145 kts | 92° |
| 2026-04-17 12:55 | 59.91149 | 150.70119 | 588 ft | 138 kts | 92° |
| 2026-04-17 12:55 | 59.91108 | 150.71656 | 586 ft | 78 kts | 94° |
| 2026-04-17 12:55 | 59.91092 | 150.72294 | 583 ft | 33 kts | 94° |
| 2026-04-17 12:56 | 59.91085 | 150.72613 | 587 ft | 12 kts | 70° |
| 2026-04-17 12:56 | 59.91151 | 150.72678 | 586 ft | 11 kts | 2° |
| 2026-04-17 12:56 | 59.91237 | 150.72686 | 585 ft | 14 kts | 2° |
| 2026-04-17 12:56 | 59.91293 | 150.72637 | 585 ft | 9 kts | 295° |
| 2026-04-17 12:57 | 59.91300 | 150.72550 | 585 ft | 10 kts | 274° |
| 2026-04-17 12:57 | 59.91304 | 150.72391 | 585 ft | 13 kts | 273° |
| 2026-04-17 12:57 | 59.91309 | 150.72201 | 585 ft | 15 kts | 273° |
| 2026-04-17 12:57 | 59.91313 | 150.72044 | 585 ft | 5 kts | 272° |
| 2026-04-17 12:58 | 59.91338 | 150.71996 | 585 ft | 6 kts | 1° |
| 2026-04-17 12:58 | 59.91374 | 150.72000 | 585 ft | 0 kts | 2° |